Time;durP1;ratioP1;P1;durP2;ratioP2;P2;SDS_P1;SDS_P2;PMS_P1;PMS_P2;Temp;Humidity;BMP_temperature;BMP_pressure;BME280_temperature;BME280_humidity;BME280_pressure;Samples;Min_cycle;Max_cycle;Signal;HPM_P1;HPM_P2
2022/03/26 00:01:31;;;;;;;44.15;17.98;;;;;;;;;;5118847;27;20104;-85
2022/03/26 00:03:58;;;;;;;40.08;18.05;;;;;;;;;;5134004;27;20058;-85
2022/03/26 00:06:24;;;;;;;36.40;16.85;;;;;;;;;;5118036;27;20052;-84
2022/03/26 00:08:51;;;;;;;40.03;18.10;;;;;;;;;;5117426;27;20081;-85
2022/03/26 00:11:17;;;;;;;40.10;18.17;;;;;;;;;;5115937;27;20101;-84
2022/03/26 00:13:43;;;;;;;39.05;18.33;;;;;;;;;;5125095;27;20052;-84
2022/03/26 00:16:10;;;;;;;36.60;17.50;;;;;;;;;;5139760;27;20493;-85
2022/03/26 00:18:38;;;;;;;41.28;18.48;;;;;;;;;;5121595;27;20514;-83
2022/03/26 00:21:05;;;;;;;42.33;17.50;;;;;;;;;;5115125;27;20055;-84
2022/03/26 00:23:31;;;;;;;39.47;17.23;;;;;;;;;;5105180;28;20113;-85
2022/03/26 00:25:58;;;;;;;36.08;18.75;;;;;;;;;;5100248;28;20052;-83
2022/03/26 00:28:25;;;;;;;36.63;18.05;;;;;;;;;;5128552;27;20052;-83
2022/03/26 00:30:51;;;;;;;39.90;18.33;;;;;;;;;;5131394;27;20521;-84
2022/03/26 00:33:18;;;;;;;37.38;17.48;;;;;;;;;;5119308;27;20184;-84
2022/03/26 00:35:44;;;;;;;45.40;18.52;;;;;;;;;;5120373;27;20102;-84
2022/03/26 00:38:10;;;;;;;37.80;17.92;;;;;;;;;;5120313;27;20521;-84
2022/03/26 00:40:40;;;;;;;39.65;17.63;;;;;;;;;;5102598;27;20060;-83
2022/03/26 00:43:07;;;;;;;41.63;17.10;;;;;;;;;;5101437;28;20052;-84
2022/03/26 00:45:35;;;;;;;37.60;18.25;;;;;;;;;;5109703;27;20092;-84
2022/03/26 00:48:02;;;;;;;38.08;17.48;;;;;;;;;;5121170;27;20851;-84
2022/03/26 00:50:28;;;;;;;35.28;16.65;;;;;;;;;;5137588;27;20051;-85
2022/03/26 00:52:54;;;;;;;39.38;17.27;;;;;;;;;;5119159;27;20066;-84
2022/03/26 00:55:21;;;;;;;41.63;17.65;;;;;;;;;;5119767;27;20043;-83
2022/03/26 00:57:48;;;;;;;33.97;16.83;;;;;;;;;;5132249;27;20044;-83
2022/03/26 01:00:14;;;;;;;38.50;16.88;;;;;;;;;;5131927;27;20055;-83
2022/03/26 01:02:41;;;;;;;34.58;15.38;;;;;;;;;;5128637;27;20048;-84
2022/03/26 01:05:08;;;;;;;35.72;15.98;;;;;;;;;;5113256;27;20155;-84
2022/03/26 01:07:34;;;;;;;40.05;16.58;;;;;;;;;;5113507;27;21235;-83
2022/03/26 01:10:00;;;;;;;37.42;16.70;;;;;;;;;;5131653;27;20078;-83
2022/03/26 01:12:27;;;;;;;33.47;15.82;;;;;;;;;;5113005;27;20109;-83
2022/03/26 01:14:53;;;;;;;37.13;15.68;;;;;;;;;;5125039;27;20047;-85
2022/03/26 01:17:20;;;;;;;35.70;16.15;;;;;;;;;;5098596;27;20055;-84
2022/03/26 01:19:46;;;;;;;40.13;16.70;;;;;;;;;;5130962;27;20495;-84
2022/03/26 01:22:13;;;;;;;38.50;15.68;;;;;;;;;;5113990;27;20101;-83
2022/03/26 01:24:40;;;;;;;35.55;15.50;;;;;;;;;;5132353;27;20052;-83
2022/03/26 01:27:07;;;;;;;38.92;16.33;;;;;;;;;;5103653;27;20459;-83
2022/03/26 01:29:33;;;;;;;37.38;15.70;;;;;;;;;;5108745;27;20048;-82
2022/03/26 01:32:00;;;;;;;34.22;15.45;;;;;;;;;;5132307;27;20378;-84
2022/03/26 01:34:27;;;;;;;35.05;14.93;;;;;;;;;;5114136;27;20563;-84
2022/03/26 01:36:53;;;;;;;34.10;14.93;;;;;;;;;;5103571;28;20518;-83
2022/03/26 01:39:22;;;;;;;35.50;15.40;;;;;;;;;;5111961;28;20129;-83
2022/03/26 01:41:48;;;;;;;36.15;14.18;;;;;;;;;;5118088;27;21259;-83
2022/03/26 01:44:15;;;;;;;36.17;15.18;;;;;;;;;;5114541;27;20074;-83
2022/03/26 01:46:48;;;;;;;39.90;14.63;;;;;;;;;;5115818;27;20137;-83
2022/03/26 01:49:15;;;;;;;45.70;16.70;;;;;;;;;;5111382;27;20082;-84
2022/03/26 01:51:41;;;;;;;33.65;14.95;;;;;;;;;;5095391;27;20051;-84
2022/03/26 01:54:08;;;;;;;35.15;16.48;;;;;;;;;;5094415;28;20064;-83
2022/03/26 01:56:35;;;;;;;40.42;16.17;;;;;;;;;;5128978;27;20052;-83
2022/03/26 01:59:02;;;;;;;40.95;16.10;;;;;;;;;;5114110;27;20056;-85
2022/03/26 02:01:28;;;;;;;34.33;14.93;;;;;;;;;;5112153;27;20563;-84
2022/03/26 02:03:55;;;;;;;32.88;14.45;;;;;;;;;;5094737;28;20850;-83
2022/03/26 02:06:22;;;;;;;34.55;15.25;;;;;;;;;;5124819;27;20087;-83
2022/03/26 02:08:49;;;;;;;36.97;15.73;;;;;;;;;;5113821;27;20051;-83
2022/03/26 02:11:15;;;;;;;36.38;15.60;;;;;;;;;;5103381;28;20067;-84
2022/03/26 02:13:48;;;;;;;35.65;15.30;;;;;;;;;;5111304;27;20047;-85
2022/03/26 02:16:15;;;;;;;36.72;15.35;;;;;;;;;;5115349;27;20103;-84
2022/03/26 02:18:42;;;;;;;34.83;16.10;;;;;;;;;;5114398;27;20897;-83
2022/03/26 02:21:09;;;;;;;39.28;15.75;;;;;;;;;;5134052;27;20056;-84
2022/03/26 02:23:35;;;;;;;36.67;14.93;;;;;;;;;;5115645;27;20051;-84
2022/03/26 02:26:02;;;;;;;35.42;16.30;;;;;;;;;;5121814;27;20502;-83
2022/03/26 02:28:28;;;;;;;38.83;15.77;;;;;;;;;;5122500;27;20060;-83
2022/03/26 02:30:54;;;;;;;37.70;15.88;;;;;;;;;;5112364;28;20515;-82
2022/03/26 02:33:21;;;;;;;38.90;15.70;;;;;;;;;;5106260;27;20125;-83
2022/03/26 02:35:48;;;;;;;31.90;14.32;;;;;;;;;;5105083;27;20115;-83
2022/03/26 02:38:14;;;;;;;36.20;15.75;;;;;;;;;;5123586;27;20040;-83
2022/03/26 02:40:41;;;;;;;33.85;15.70;;;;;;;;;;5100436;27;20052;-83
2022/03/26 02:43:07;;;;;;;40.58;16.40;;;;;;;;;;5127808;27;20050;-83
2022/03/26 02:45:34;;;;;;;34.65;15.15;;;;;;;;;;5115799;27;20108;-83
2022/03/26 02:48:00;;;;;;;34.47;15.85;;;;;;;;;;5133329;27;20462;-83
2022/03/26 02:50:27;;;;;;;37.10;15.93;;;;;;;;;;5100182;28;20133;-83
2022/03/26 02:52:53;;;;;;;35.58;14.38;;;;;;;;;;5100894;28;20055;-82
2022/03/26 02:55:19;;;;;;;33.60;14.82;;;;;;;;;;5098254;28;20131;-83
2022/03/26 02:57:46;;;;;;;36.72;15.48;;;;;;;;;;5093760;28;20872;-84
2022/03/26 03:00:14;;;;;;;34.80;15.00;;;;;;;;;;5094215;28;20469;-86
2022/03/26 03:02:41;;;;;;;39.67;15.63;;;;;;;;;;5121514;27;20102;-84
2022/03/26 03:05:08;;;;;;;35.28;14.95;;;;;;;;;;5114097;27;20069;-83
2022/03/26 03:07:36;;;;;;;33.22;13.88;;;;;;;;;;5103022;28;20074;-83
2022/03/26 03:10:03;;;;;;;32.00;14.20;;;;;;;;;;5112190;27;20040;-83
2022/03/26 03:12:30;;;;;;;33.03;14.57;;;;;;;;;;5113080;27;20098;-83
2022/03/26 03:15:01;;;;;;;40.40;16.23;;;;;;;;;;5096394;28;20052;-84
2022/03/26 03:17:28;;;;;;;33.65;14.10;;;;;;;;;;5107730;27;20575;-83
2022/03/26 03:19:54;;;;;;;31.77;14.68;;;;;;;;;;5131086;27;20571;-83
2022/03/26 03:22:21;;;;;;;33.90;14.68;;;;;;;;;;5103701;27;20044;-83
2022/03/26 03:24:47;;;;;;;36.38;14.20;;;;;;;;;;5113044;27;20052;-82
2022/03/26 03:27:13;;;;;;;33.08;15.38;;;;;;;;;;5123161;27;20048;-83
2022/03/26 03:29:40;;;;;;;36.17;14.27;;;;;;;;;;5113456;27;20751;-84
2022/03/26 03:32:06;;;;;;;28.10;14.10;;;;;;;;;;5131173;27;20065;-84
2022/03/26 03:34:33;;;;;;;35.58;14.50;;;;;;;;;;5106859;27;20055;-83
2022/03/26 03:36:59;;;;;;;31.52;14.27;;;;;;;;;;5108329;28;20102;-83
2022/03/26 03:39:25;;;;;;;35.45;14.80;;;;;;;;;;5124917;27;20052;-85
2022/03/26 03:41:52;;;;;;;38.38;15.23;;;;;;;;;;5095407;27;20109;-84
2022/03/26 03:44:19;;;;;;;35.50;15.18;;;;;;;;;;5107917;27;20036;-82
2022/03/26 03:46:45;;;;;;;32.60;14.30;;;;;;;;;;5106976;28;20086;-84
2022/03/26 03:49:12;;;;;;;34.28;14.55;;;;;;;;;;5113982;27;20048;-84
2022/03/26 03:51:38;;;;;;;33.95;14.65;;;;;;;;;;5113133;27;20055;-82
2022/03/26 03:54:05;;;;;;;38.38;14.43;;;;;;;;;;5118475;27;20052;-82
2022/03/26 03:56:31;;;;;;;40.25;14.55;;;;;;;;;;5117395;27;20051;-85
2022/03/26 03:58:57;;;;;;;29.15;13.02;;;;;;;;;;5137134;27;20060;-84
2022/03/26 04:01:24;;;;;;;37.53;14.63;;;;;;;;;;5109733;28;20059;-83
2022/03/26 04:03:50;;;;;;;41.55;15.18;;;;;;;;;;5113647;27;20107;-83
2022/03/26 04:06:17;;;;;;;34.30;13.98;;;;;;;;;;5115760;27;20775;-83
2022/03/26 04:08:45;;;;;;;34.50;13.55;;;;;;;;;;5105095;27;20055;-83
2022/03/26 04:11:12;;;;;;;29.50;13.20;;;;;;;;;;5117802;27;20047;-85
2022/03/26 04:13:38;;;;;;;32.97;12.98;;;;;;;;;;5104493;27;20056;-83
2022/03/26 04:16:05;;;;;;;28.58;13.45;;;;;;;;;;5102540;27;20498;-82
2022/03/26 04:18:31;;;;;;;32.33;12.88;;;;;;;;;;5115600;27;20056;-84
2022/03/26 04:20:58;;;;;;;32.83;12.95;;;;;;;;;;5117892;27;20908;-82
2022/03/26 04:23:24;;;;;;;29.73;13.23;;;;;;;;;;5117829;27;20104;-82
2022/03/26 04:25:51;;;;;;;36.28;14.02;;;;;;;;;;5117587;27;20052;-84
2022/03/26 04:28:17;;;;;;;30.98;13.20;;;;;;;;;;5134340;27;20044;-83
2022/03/26 04:30:43;;;;;;;32.10;13.82;;;;;;;;;;5124112;27;20063;-84
2022/03/26 04:33:10;;;;;;;33.03;13.80;;;;;;;;;;5100828;27;20056;-82
2022/03/26 04:35:36;;;;;;;34.55;14.30;;;;;;;;;;5104458;28;20074;-83
2022/03/26 04:38:03;;;;;;;32.60;13.90;;;;;;;;;;5131070;27;20055;-82
2022/03/26 04:40:29;;;;;;;33.90;13.38;;;;;;;;;;5133022;27;20047;-82
2022/03/26 04:42:56;;;;;;;30.23;13.57;;;;;;;;;;5123206;27;20121;-85
2022/03/26 04:45:25;;;;;;;30.67;13.50;;;;;;;;;;5102865;27;20102;-82
2022/03/26 04:47:52;;;;;;;33.80;14.18;;;;;;;;;;5114651;27;20813;-83
2022/03/26 04:50:18;;;;;;;35.47;14.23;;;;;;;;;;5118339;27;20055;-83
2022/03/26 04:52:44;;;;;;;43.75;14.75;;;;;;;;;;5143604;27;20051;-83
2022/03/26 04:55:11;;;;;;;33.72;14.30;;;;;;;;;;5131898;27;20070;-84
2022/03/26 04:57:38;;;;;;;34.47;14.32;;;;;;;;;;5124499;28;20064;-83
2022/03/26 05:00:06;;;;;;;36.58;15.25;;;;;;;;;;5110147;27;20156;-84
2022/03/26 05:02:32;;;;;;;34.63;13.93;;;;;;;;;;5116051;27;20109;-83
2022/03/26 05:04:59;;;;;;;35.83;14.85;;;;;;;;;;5101686;28;20044;-84
2022/03/26 05:10:10;;;;;;;44.30;15.35;;;;;;;;;;5138228;27;20141;-84
2022/03/26 05:12:36;;;;;;;38.42;16.05;;;;;;;;;;5122463;27;20052;-83
2022/03/26 05:15:03;;;;;;;34.85;14.15;;;;;;;;;;5118171;27;20824;-82
2022/03/26 05:17:29;;;;;;;40.75;14.98;;;;;;;;;;5115872;28;20056;-85
2022/03/26 05:19:55;;;;;;;40.47;14.57;;;;;;;;;;5127018;27;20105;-85
2022/03/26 05:22:22;;;;;;;40.10;15.82;;;;;;;;;;5111546;28;20051;-83
2022/03/26 05:24:48;;;;;;;35.28;14.80;;;;;;;;;;5100647;28;20886;-82
2022/03/26 05:27:14;;;;;;;29.77;13.65;;;;;;;;;;5115385;27;20052;-82
2022/03/26 05:29:41;;;;;;;42.08;15.80;;;;;;;;;;5120631;27;20059;-82
2022/03/26 05:32:07;;;;;;;38.45;15.32;;;;;;;;;;5112159;27;20043;-82
2022/03/26 05:34:34;;;;;;;39.92;15.75;;;;;;;;;;5100874;28;20093;-82
2022/03/26 05:37:00;;;;;;;41.08;15.70;;;;;;;;;;5110013;28;20092;-83
2022/03/26 05:39:26;;;;;;;41.33;16.00;;;;;;;;;;5116688;28;20060;-83
2022/03/26 05:41:53;;;;;;;39.90;16.30;;;;;;;;;;5121231;27;20055;-85
2022/03/26 05:44:19;;;;;;;39.45;15.68;;;;;;;;;;5140147;27;20055;-81
2022/03/26 05:46:46;;;;;;;37.60;15.10;;;;;;;;;;5134764;27;20055;-82
2022/03/26 05:49:12;;;;;;;43.10;16.23;;;;;;;;;;5119330;27;20056;-81
2022/03/26 05:51:38;;;;;;;44.97;16.15;;;;;;;;;;5132915;27;20890;-81
2022/03/26 05:54:05;;;;;;;38.40;16.30;;;;;;;;;;5118968;27;20071;-83
2022/03/26 05:56:36;;;;;;;42.75;15.73;;;;;;;;;;5098984;28;20056;-83
2022/03/26 05:59:02;;;;;;;;;;;;;;;;;;5099510;27;20044;-81
2022/03/26 06:01:28;;;;;;;32.25;14.23;;;;;;;;;;5102130;27;48518;-81
2022/03/26 06:03:55;;;;;;;37.22;14.25;;;;;;;;;;5138148;27;20043;-82
2022/03/26 06:06:21;;;;;;;37.42;16.23;;;;;;;;;;5111618;27;20109;-82
2022/03/26 06:08:48;;;;;;;38.05;15.98;;;;;;;;;;5096894;28;20117;-82
2022/03/26 06:11:14;;;;;;;43.92;16.60;;;;;;;;;;5128804;27;20105;-82
2022/03/26 06:13:40;;;;;;;40.53;16.40;;;;;;;;;;5110988;28;20056;-83
2022/03/26 06:16:07;;;;;;;40.67;16.40;;;;;;;;;;5125710;27;20040;-82
2022/03/26 06:18:34;;;;;;;40.65;16.50;;;;;;;;;;5138243;27;20059;-83
2022/03/26 06:21:01;;;;;;;36.50;14.75;;;;;;;;;;5120262;27;20078;-82
2022/03/26 06:23:27;;;;;;;44.97;16.73;;;;;;;;;;5113259;27;20073;-81
2022/03/26 06:25:53;;;;;;;40.95;16.02;;;;;;;;;;5114681;28;20457;-82
2022/03/26 06:28:20;;;;;;;37.28;14.57;;;;;;;;;;5126377;27;20036;-81
2022/03/26 06:30:46;;;;;;;45.05;16.15;;;;;;;;;;5117809;27;20101;-82
2022/03/26 06:33:15;;;;;;;36.53;16.15;;;;;;;;;;5117488;27;20044;-83
2022/03/26 06:35:42;;;;;;;47.50;16.35;;;;;;;;;;5117062;27;20056;-83
2022/03/26 06:38:09;;;;;;;40.97;16.25;;;;;;;;;;5132733;27;20165;-82
2022/03/26 06:40:35;;;;;;;39.05;16.55;;;;;;;;;;5116530;27;20114;-82
2022/03/26 06:43:01;;;;;;;41.72;17.15;;;;;;;;;;5109882;28;20620;-83
2022/03/26 06:45:28;;;;;;;39.20;16.77;;;;;;;;;;5097786;28;20044;-83
2022/03/26 06:47:54;;;;;;;42.25;17.33;;;;;;;;;;5111579;27;20504;-82
2022/03/26 06:50:21;;;;;;;44.20;17.98;;;;;;;;;;5118168;27;20059;-82
2022/03/26 06:52:48;;;;;;;43.25;16.63;;;;;;;;;;5106429;28;20056;-82
2022/03/26 06:55:14;;;;;;;49.47;17.85;;;;;;;;;;5097100;27;20102;-84
2022/03/26 06:57:43;;;;;;;49.17;18.20;;;;;;;;;;5114033;27;20510;-82
2022/03/26 07:00:11;;;;;;;46.50;18.05;;;;;;;;;;5117632;27;20070;-82
2022/03/26 07:02:37;;;;;;;45.28;18.88;;;;;;;;;;5117433;27;20087;-82
2022/03/26 07:05:05;;;;;;;44.67;18.50;;;;;;;;;;5116469;27;20100;-84
2022/03/26 07:07:31;;;;;;;44.58;18.17;;;;;;;;;;5124290;27;21132;-82
2022/03/26 07:09:58;;;;;;;44.42;18.83;;;;;;;;;;5134372;27;20078;-82
2022/03/26 07:12:26;;;;;;;45.67;18.83;;;;;;;;;;5113128;27;20048;-82
2022/03/26 07:14:53;;;;;;;47.65;18.45;;;;;;;;;;5100216;27;20490;-82
2022/03/26 07:17:19;;;;;;;45.42;19.08;;;;;;;;;;5116584;27;20059;-83
2022/03/26 07:19:46;;;;;;;41.70;18.13;;;;;;;;;;5116117;27;20055;-83
2022/03/26 07:22:12;;;;;;;52.38;21.85;;;;;;;;;;5119189;27;20052;-83
2022/03/26 07:24:39;;;;;;;45.42;20.38;;;;;;;;;;5132035;27;20043;-83
2022/03/26 07:27:05;;;;;;;52.60;22.02;;;;;;;;;;5104699;28;20195;-84
2022/03/26 07:29:38;;;;;;;56.20;23.00;;;;;;;;;;5122420;27;20048;-83
2022/03/26 07:32:06;;;;;;;51.55;21.65;;;;;;;;;;5126608;27;20048;-83
2022/03/26 07:34:33;;;;;;;54.60;22.60;;;;;;;;;;5108742;27;20062;-83
2022/03/26 07:37:00;;;;;;;60.13;23.48;;;;;;;;;;5105118;27;20082;-83
2022/03/26 07:39:27;;;;;;;57.22;22.75;;;;;;;;;;5125156;27;20039;-85
2022/03/26 07:41:53;;;;;;;57.35;22.80;;;;;;;;;;5126232;27;20044;-83
2022/03/26 07:44:20;;;;;;;55.85;23.00;;;;;;;;;;5108802;27;20063;-83
2022/03/26 07:46:46;;;;;;;53.83;22.75;;;;;;;;;;5121682;27;20059;-84
2022/03/26 07:49:13;;;;;;;56.83;23.13;;;;;;;;;;5105181;28;20056;-84
2022/03/26 07:51:39;;;;;;;53.22;23.20;;;;;;;;;;5112364;27;20052;-83
2022/03/26 07:54:06;;;;;;;50.97;22.88;;;;;;;;;;5121925;27;20047;-84
2022/03/26 07:56:32;;;;;;;55.20;23.20;;;;;;;;;;5139896;27;20078;-84
2022/03/26 07:58:59;;;;;;;56.17;22.85;;;;;;;;;;5135442;27;20060;-83
2022/03/26 08:01:25;;;;;;;51.17;22.15;;;;;;;;;;5100462;27;20048;-84
2022/03/26 08:03:54;;;;;;;55.10;22.27;;;;;;;;;;5106593;27;20081;-84
2022/03/26 08:06:21;;;;;;;50.53;22.30;;;;;;;;;;5117074;27;20048;-84
2022/03/26 08:08:47;;;;;;;58.28;23.20;;;;;;;;;;5133200;27;20040;-83
2022/03/26 08:11:14;;;;;;;58.20;23.23;;;;;;;;;;5114779;27;20116;-83
2022/03/26 08:13:40;;;;;;;56.10;23.48;;;;;;;;;;5100485;28;20048;-83
2022/03/26 08:16:07;;;;;;;57.40;23.90;;;;;;;;;;5108070;27;20082;-84
2022/03/26 08:18:34;;;;;;;63.10;26.88;;;;;;;;;;5122933;27;20051;-83
2022/03/26 08:21:02;;;;;;;57.47;26.35;;;;;;;;;;5121418;27;20047;-84
2022/03/26 08:23:29;;;;;;;57.15;26.67;;;;;;;;;;5121852;27;20047;-84
2022/03/26 08:28:41;;;;;;;54.35;23.80;;;;;;;;;;5133600;27;20204;-84
2022/03/26 08:31:10;;;;;;;54.83;24.33;;;;;;;;;;5102064;28;20056;-84
2022/03/26 08:33:37;;;;;;;49.20;23.52;;;;;;;;;;5111931;27;20498;-85
2022/03/26 08:36:03;;;;;;;54.75;23.45;;;;;;;;;;5120053;27;20047;-84
2022/03/26 08:38:30;;;;;;;50.60;23.23;;;;;;;;;;5122793;27;20081;-84
2022/03/26 08:40:56;;;;;;;55.85;23.25;;;;;;;;;;5113741;27;20052;-84
2022/03/26 08:43:23;;;;;;;51.15;22.83;;;;;;;;;;5116467;27;20082;-84
2022/03/26 08:45:49;;;;;;;49.60;21.55;;;;;;;;;;5118460;27;20052;-84
2022/03/26 08:48:16;;;;;;;47.65;21.73;;;;;;;;;;5102394;27;20055;-85
2022/03/26 08:50:43;;;;;;;46.85;21.27;;;;;;;;;;5133888;27;20055;-85
2022/03/26 08:53:09;;;;;;;49.58;19.92;;;;;;;;;;5113830;27;20892;-84
2022/03/26 08:55:36;;;;;;;47.72;20.92;;;;;;;;;;5130214;27;20047;-84
2022/03/26 08:58:02;;;;;;;45.05;21.13;;;;;;;;;;5108705;27;20036;-83
2022/03/26 09:00:29;;;;;;;43.38;20.30;;;;;;;;;;5111728;27;20044;-84
2022/03/26 09:02:56;;;;;;;45.55;19.85;;;;;;;;;;5133760;27;20052;-84
2022/03/26 09:05:23;;;;;;;42.08;17.58;;;;;;;;;;5135775;27;20039;-85
2022/03/26 09:07:50;;;;;;;40.33;18.52;;;;;;;;;;5131610;27;20036;-84
2022/03/26 09:10:16;;;;;;;33.83;17.30;;;;;;;;;;5102414;28;20048;-85
2022/03/26 09:12:42;;;;;;;33.65;16.45;;;;;;;;;;5098413;27;20102;-84
2022/03/26 09:15:09;;;;;;;34.72;15.63;;;;;;;;;;5114151;28;20055;-84
2022/03/26 09:17:36;;;;;;;31.98;14.90;;;;;;;;;;5107396;27;21018;-84
2022/03/26 09:20:03;;;;;;;36.78;15.70;;;;;;;;;;5113902;27;20571;-85
2022/03/26 09:22:30;;;;;;;35.42;16.50;;;;;;;;;;5107735;27;20052;-85
2022/03/26 09:24:56;;;;;;;31.70;16.50;;;;;;;;;;5114446;27;20054;-85
2022/03/26 09:27:22;;;;;;;34.75;17.73;;;;;;;;;;5108976;28;20051;-85
2022/03/26 09:29:49;;;;;;;32.95;17.58;;;;;;;;;;5109788;27;20055;-85
2022/03/26 09:32:15;;;;;;;36.72;17.73;;;;;;;;;;5115673;27;20071;-84
2022/03/26 09:34:42;;;;;;;38.65;18.23;;;;;;;;;;5093349;28;20561;-84
2022/03/26 09:37:08;;;;;;;41.22;18.52;;;;;;;;;;5099729;27;20563;-85
2022/03/26 09:39:35;;;;;;;35.65;17.80;;;;;;;;;;5101802;27;20056;-85
2022/03/26 09:42:03;;;;;;;37.20;18.58;;;;;;;;;;5121228;27;20105;-85
2022/03/26 09:44:30;;;;;;;38.67;21.05;;;;;;;;;;5116606;27;20055;-84
2022/03/26 09:46:57;;;;;;;44.58;21.63;;;;;;;;;;5124208;27;20081;-84
2022/03/26 09:49:24;;;;;;;39.70;18.55;;;;;;;;;;5123273;27;20056;-84
2022/03/26 09:51:54;;;;;;;30.45;16.92;;;;;;;;;;5100102;28;20048;-84
2022/03/26 09:54:21;;;;;;;35.73;18.07;;;;;;;;;;5111496;27;20062;-85
2022/03/26 09:56:48;;;;;;;38.08;19.35;;;;;;;;;;5130236;27;20068;-84
2022/03/26 09:59:18;;;;;;;39.08;21.38;;;;;;;;;;5111811;27;20087;-84
2022/03/26 10:01:44;;;;;;;44.15;21.73;;;;;;;;;;5108686;27;20102;-85
2022/03/26 10:04:12;;;;;;;40.03;20.00;;;;;;;;;;5092268;28;20052;-85
2022/03/26 10:06:48;;;;;;;33.95;17.95;;;;;;;;;;5104341;28;20136;-84
2022/03/26 10:09:24;;;;;;;36.13;18.83;;;;;;;;;;5126216;27;21743;-84
2022/03/26 10:11:57;;;;;;;33.95;18.17;;;;;;;;;;5106743;28;20056;-85
2022/03/26 10:14:23;;;;;;;37.53;18.25;;;;;;;;;;5101266;27;20052;-85
2022/03/26 10:16:50;;;;;;;35.85;18.70;;;;;;;;;;5104714;27;20104;-84
2022/03/26 10:19:23;;;;;;;35.00;17.85;;;;;;;;;;5110938;27;20126;-85
2022/03/26 10:21:50;;;;;;;34.50;16.90;;;;;;;;;;5109606;28;20056;-85
2022/03/26 10:24:23;;;;;;;30.10;16.73;;;;;;;;;;5121082;27;20562;-85
2022/03/26 10:26:50;;;;;;;36.97;17.20;;;;;;;;;;5097396;28;20083;-85
2022/03/26 10:29:16;;;;;;;35.22;16.05;;;;;;;;;;5123583;27;20043;-85
2022/03/26 10:34:28;;;;;;;31.40;17.38;;;;;;;;;;5119762;27;20077;-84
2022/03/26 10:36:56;;;;;;;36.17;18.35;;;;;;;;;;5091625;27;20060;-85
2022/03/26 10:39:23;;;;;;;34.97;18.52;;;;;;;;;;5129030;27;20556;-85
2022/03/26 10:41:52;;;;;;;31.05;16.17;;;;;;;;;;5104764;27;20078;-85
2022/03/26 10:44:22;;;;;;;32.97;17.08;;;;;;;;;;5102589;27;20052;-85
2022/03/26 10:46:55;;;;;;;32.00;16.40;;;;;;;;;;5094122;27;20105;-85
2022/03/26 10:49:27;;;;;;;35.83;17.30;;;;;;;;;;5126540;27;20165;-85
2022/03/26 10:51:54;;;;;;;31.20;15.60;;;;;;;;;;5119083;27;20517;-85
2022/03/26 10:54:27;;;;;;;31.65;16.60;;;;;;;;;;5091475;28;20055;-85
2022/03/26 10:56:53;;;;;;;31.30;16.23;;;;;;;;;;5103552;27;20105;-86
2022/03/26 10:59:20;;;;;;;30.83;15.65;;;;;;;;;;5130411;27;20523;-83
2022/03/26 11:01:46;;;;;;;34.22;16.67;;;;;;;;;;5124003;27;20051;-84
2022/03/26 11:04:13;;;;;;;30.52;16.52;;;;;;;;;;5118617;27;20099;-86
2022/03/26 11:06:39;;;;;;;32.38;16.58;;;;;;;;;;5105770;27;20502;-86
2022/03/26 11:09:06;;;;;;;35.30;18.08;;;;;;;;;;5123339;27;20070;-86
2022/03/26 11:11:33;;;;;;;35.42;19.70;;;;;;;;;;5100962;27;20051;-86
2022/03/26 11:14:01;;;;;;;36.70;18.20;;;;;;;;;;5100460;27;20642;-86
2022/03/26 11:16:27;;;;;;;34.63;17.92;;;;;;;;;;5110053;27;20052;-86
2022/03/26 11:18:57;;;;;;;32.17;15.15;;;;;;;;;;5109868;27;20047;-86
2022/03/26 11:21:39;;;;;;;25.83;13.53;;;;;;;;;;5114482;27;20048;-86
2022/03/26 11:24:08;;;;;;;25.27;12.80;;;;;;;;;;5110425;27;20842;-86
2022/03/26 11:26:47;;;;;;;28.20;12.80;;;;;;;;;;5089752;28;20048;-86
2022/03/26 11:29:32;;;;;;;27.65;12.18;;;;;;;;;;5089518;28;20430;-86
2022/03/26 11:32:20;;;;;;;25.98;11.15;;;;;;;;;;5092992;27;20518;-86
2022/03/26 11:34:49;;;;;;;24.65;12.25;;;;;;;;;;5089574;28;20140;-86
2022/03/26 11:37:22;;;;;;;21.95;10.80;;;;;;;;;;5094530;27;20089;-87
2022/03/26 11:39:51;;;;;;;18.95;8.75;;;;;;;;;;5103697;27;20105;-86
2022/03/26 11:42:24;;;;;;;20.17;9.60;;;;;;;;;;5100783;27;20175;-85
2022/03/26 11:50:41;;;;;;;19.45;8.68;;;;;;;;;;5117723;27;20052;-87
2022/03/26 11:53:09;;;;;;;19.63;10.23;;;;;;;;;;5099743;28;20101;-84
2022/03/26 11:55:42;;;;;;;18.77;10.10;;;;;;;;;;5114974;27;20113;-85
2022/03/26 11:58:21;;;;;;;21.13;10.18;;;;;;;;;;5095056;28;20048;-84
2022/03/26 12:01:08;;;;;;;24.00;12.43;;;;;;;;;;5101770;27;20047;-85
2022/03/26 12:03:41;;;;;;;24.55;11.88;;;;;;;;;;5100865;28;20162;-84
2022/03/26 12:08:54;;;;;;;25.88;13.23;;;;;;;;;;5123978;27;20052;-84
2022/03/26 12:11:21;;;;;;;28.52;14.43;;;;;;;;;;5122075;27;20399;-85
2022/03/26 12:14:07;;;;;;;26.73;14.02;;;;;;;;;;5124017;27;20544;-84
2022/03/26 12:16:49;;;;;;;29.95;13.45;;;;;;;;;;5116927;27;20036;-83
2022/03/26 12:19:45;;;;;;;25.48;12.65;;;;;;;;;;5127921;27;20054;-84
2022/03/26 12:22:18;;;;;;;27.08;12.88;;;;;;;;;;5100969;27;20670;-84
2022/03/26 12:24:46;;;;;;;22.88;11.57;;;;;;;;;;5101432;27;20113;-85
2022/03/26 12:27:13;;;;;;;29.05;11.98;;;;;;;;;;5106696;27;20056;-86
2022/03/26 12:29:39;;;;;;;30.85;13.50;;;;;;;;;;5110471;27;20079;-85
2022/03/26 12:32:06;;;;;;;25.75;14.10;;;;;;;;;;5130697;27;20143;-84
2022/03/26 12:34:32;;;;;;;24.45;12.55;;;;;;;;;;5108928;27;20077;-84
2022/03/26 12:37:02;;;;;;;23.70;10.50;;;;;;;;;;5101530;28;20040;-84
2022/03/26 12:39:29;;;;;;;18.70;8.75;;;;;;;;;;5131911;27;20055;-84
2022/03/26 12:41:56;;;;;;;23.65;9.80;;;;;;;;;;5105810;28;20971;-84
2022/03/26 12:44:23;;;;;;;25.90;9.73;;;;;;;;;;5103063;27;20059;-84
2022/03/26 12:46:49;;;;;;;15.50;8.70;;;;;;;;;;5124644;27;20108;-84
2022/03/26 12:49:16;;;;;;;20.42;8.77;;;;;;;;;;5108715;27;20858;-84
2022/03/26 12:51:43;;;;;;;16.35;7.85;;;;;;;;;;5123809;27;20910;-84
2022/03/26 12:54:13;;;;;;;18.90;8.63;;;;;;;;;;5106299;27;20132;-84
2022/03/26 12:56:40;;;;;;;20.50;8.77;;;;;;;;;;5130876;27;20048;-84
2022/03/26 12:59:07;;;;;;;19.08;8.35;;;;;;;;;;5125688;27;20051;-85
2022/03/26 13:01:34;;;;;;;24.17;11.52;;;;;;;;;;5108378;27;20043;-85
2022/03/26 13:04:00;;;;;;;21.05;9.55;;;;;;;;;;5105926;27;20076;-84
2022/03/26 13:06:27;;;;;;;18.13;8.18;;;;;;;;;;5105689;27;20146;-84
2022/03/26 13:08:54;;;;;;;23.63;10.63;;;;;;;;;;5127982;27;20135;-84
2022/03/26 13:11:22;;;;;;;21.42;10.52;;;;;;;;;;5107044;27;20040;-84
2022/03/26 13:13:49;;;;;;;19.27;8.70;;;;;;;;;;5111396;28;20075;-85
2022/03/26 13:16:18;;;;;;;22.75;8.73;;;;;;;;;;5116052;27;20052;-85
2022/03/26 13:18:46;;;;;;;18.20;9.18;;;;;;;;;;5135939;27;20108;-84
2022/03/26 13:21:15;;;;;;;17.05;8.80;;;;;;;;;;5121273;27;20482;-84
2022/03/26 13:23:55;;;;;;;21.50;9.40;;;;;;;;;;5104516;27;20040;-85
2022/03/26 13:26:38;;;;;;;23.73;9.90;;;;;;;;;;5113736;27;21277;-85
2022/03/26 13:29:11;;;;;;;14.88;8.10;;;;;;;;;;5104434;27;20052;-86
2022/03/26 13:31:41;;;;;;;18.67;8.70;;;;;;;;;;5098012;27;20125;-85
2022/03/26 13:34:08;;;;;;;15.18;8.43;;;;;;;;;;5119940;27;20446;-85
2022/03/26 13:36:34;;;;;;;15.57;7.45;;;;;;;;;;5098121;27;20091;-85
2022/03/26 13:39:12;;;;;;;16.42;8.48;;;;;;;;;;5100822;27;20514;-84
2022/03/26 13:41:38;;;;;;;16.58;8.65;;;;;;;;;;5108841;27;20060;-85
2022/03/26 13:44:06;;;;;;;19.27;9.30;;;;;;;;;;5114636;27;20061;-84
2022/03/26 13:46:34;;;;;;;19.48;8.90;;;;;;;;;;5121523;27;20104;-85
2022/03/26 13:49:01;;;;;;;17.55;8.20;;;;;;;;;;5136371;27;20132;-85
2022/03/26 13:51:29;;;;;;;14.60;8.38;;;;;;;;;;5129427;27;20059;-84
2022/03/26 13:53:55;;;;;;;15.30;7.72;;;;;;;;;;5124032;27;20051;-85
2022/03/26 13:56:26;;;;;;;15.40;7.55;;;;;;;;;;5109635;27;20060;-85
2022/03/26 13:58:53;;;;;;;15.55;7.97;;;;;;;;;;5135500;27;20496;-85
2022/03/26 14:01:20;;;;;;;15.77;8.23;;;;;;;;;;5133675;27;20051;-85
2022/03/26 14:03:52;;;;;;;16.52;8.25;;;;;;;;;;5127659;27;20051;-85
2022/03/26 14:06:19;;;;;;;22.13;9.15;;;;;;;;;;5130877;27;20047;-85
2022/03/26 14:08:47;;;;;;;15.77;8.23;;;;;;;;;;5099997;27;20097;-85
2022/03/26 14:11:15;;;;;;;15.48;7.78;;;;;;;;;;5097300;27;20044;-85
2022/03/26 14:13:41;;;;;;;13.32;6.78;;;;;;;;;;5111603;27;20955;-85
2022/03/26 14:16:08;;;;;;;17.88;7.15;;;;;;;;;;5105428;27;20105;-85
2022/03/26 14:18:34;;;;;;;18.50;8.13;;;;;;;;;;5115539;27;20052;-84
2022/03/26 14:21:01;;;;;;;18.60;8.63;;;;;;;;;;5106692;27;20585;-84
2022/03/26 14:23:27;;;;;;;15.75;6.53;;;;;;;;;;5125222;27;21201;-84
2022/03/26 14:25:53;;;;;;;16.40;7.85;;;;;;;;;;5098955;27;20114;-85
2022/03/26 14:28:20;;;;;;;20.25;7.45;;;;;;;;;;5105584;27;20057;-85
2022/03/26 14:30:46;;;;;;;15.65;8.02;;;;;;;;;;5102778;28;20105;-85
2022/03/26 14:33:13;;;;;;;18.08;9.00;;;;;;;;;;5109850;27;20134;-86
2022/03/26 14:35:40;;;;;;;22.90;10.10;;;;;;;;;;5112004;27;20052;-84
2022/03/26 14:38:07;;;;;;;27.30;10.95;;;;;;;;;;5107811;27;20051;-84